Time;durP1;ratioP1;P1;durP2;ratioP2;P2;SDS_P1;SDS_P2;PMS_P1;PMS_P2;Temp;Humidity;BMP_temperature;BMP_pressure;BME280_temperature;BME280_humidity;BME280_pressure;Samples;Min_cycle;Max_cycle;Signal;HPM_P1;HPM_P2
2023/10/02 00:02:08;;;;;;;15.37;7.67;;;14.60;99.90;;;;;;4973181;28;20194;-75
2023/10/02 00:04:37;;;;;;;15.47;8.23;;;14.50;99.90;;;;;;4974518;28;20178;-75
2023/10/02 00:07:05;;;;;;;13.23;8.10;;;14.50;99.90;;;;;;4973165;28;20661;-75
2023/10/02 00:09:34;;;;;;;14.40;7.77;;;14.60;99.90;;;;;;4974491;28;20302;-75
2023/10/02 00:12:01;;;;;;;12.30;7.60;;;14.50;99.90;;;;;;4972958;28;20194;-75
2023/10/02 00:14:34;;;;;;;14.13;7.37;;;14.50;99.90;;;;;;4974148;28;20219;-75
2023/10/02 00:17:05;;;;;;;15.10;8.40;;;14.50;99.90;;;;;;4974270;28;20570;-76
2023/10/02 00:19:44;;;;;;;14.70;7.30;;;14.50;99.90;;;;;;4974354;28;20482;-76
2023/10/02 00:25:02;;;;;;;15.17;8.07;;;14.50;99.90;;;;;;4974398;28;20169;-75
2023/10/02 00:27:28;;;;;;;14.00;8.13;;;14.50;99.90;;;;;;4974017;28;20668;-75
2023/10/02 00:29:58;;;;;;;13.83;7.87;;;14.40;99.90;;;;;;4974030;28;20257;-76
2023/10/02 00:32:26;;;;;;;11.30;7.17;;;14.40;99.90;;;;;;4974029;28;20194;-75
2023/10/02 00:34:53;;;;;;;13.47;7.93;;;14.40;99.90;;;;;;4973749;28;20206;-75
2023/10/02 00:37:19;;;;;;;13.20;8.00;;;14.40;99.90;;;;;;4973718;28;20546;-75
2023/10/02 00:39:50;;;;;;;15.27;7.50;;;14.30;99.90;;;;;;4973470;28;20237;-75
2023/10/02 00:42:16;;;;;;;11.50;7.03;;;14.40;99.90;;;;;;4972435;28;20229;-74
2023/10/02 00:44:56;;;;;;;12.13;7.07;;;14.40;99.90;;;;;;4972455;28;20202;-75
2023/10/02 00:50:08;;;;;;;13.63;7.00;;;14.30;99.90;;;;;;4974003;28;20158;-75
2023/10/02 00:52:40;;;;;;;13.07;7.00;;;14.30;99.90;;;;;;4972251;28;20198;-76
2023/10/02 00:55:11;;;;;;;10.37;6.90;;;14.30;99.90;;;;;;4972284;28;20242;-75
2023/10/02 00:57:38;;;;;;;16.17;7.73;;;14.30;99.90;;;;;;4973660;28;20639;-75
2023/10/02 01:00:22;;;;;;;12.57;7.43;;;14.20;99.90;;;;;;4973627;28;20174;-75
2023/10/02 01:02:57;;;;;;;13.03;7.40;;;14.20;99.90;;;;;;4973396;28;20216;-75
2023/10/02 01:05:27;;;;;;;13.27;7.53;;;14.20;99.90;;;;;;4972523;28;20166;-75
2023/10/02 01:07:56;;;;;;;11.63;7.27;;;14.20;99.90;;;;;;4973674;28;20166;-75
2023/10/02 01:10:23;;;;;;;13.63;7.57;;;14.30;99.90;;;;;;4971918;28;20725;-76
2023/10/02 01:12:53;;;;;;;13.33;7.47;;;14.20;99.90;;;;;;4973174;28;20249;-76
2023/10/02 01:15:21;;;;;;;11.70;7.60;;;14.10;99.90;;;;;;4973256;28;20583;-76
2023/10/02 01:17:50;;;;;;;16.87;7.43;;;14.10;99.90;;;;;;4973229;28;20622;-75
2023/10/02 01:20:35;;;;;;;15.93;7.93;;;14.10;99.90;;;;;;4973363;28;20200;-76
2023/10/02 01:23:12;;;;;;;15.67;7.53;;;14.10;99.90;;;;;;4973085;28;20186;-75
2023/10/02 01:25:42;;;;;;;11.83;6.73;;;14.00;99.90;;;;;;4973230;28;20158;-75
2023/10/02 01:28:10;;;;;;;14.17;7.70;;;14.10;99.90;;;;;;4973160;28;20175;-75
2023/10/02 01:30:36;;;;;;;12.33;7.63;;;14.10;99.90;;;;;;4973121;28;20178;-75
2023/10/02 01:33:12;;;;;;;13.70;7.33;;;14.10;99.90;;;;;;4972933;28;20190;-75
2023/10/02 01:35:49;;;;;;;17.60;7.50;;;14.00;99.90;;;;;;4971771;28;20675;-75
2023/10/02 01:38:29;;;;;;;12.20;7.47;;;14.00;99.90;;;;;;4973151;28;20214;-75
2023/10/02 01:41:10;;;;;;;12.57;7.87;;;14.00;99.90;;;;;;4971884;28;20185;-75
2023/10/02 01:43:39;;;;;;;16.10;7.47;;;14.00;99.90;;;;;;4971728;28;20202;-75
2023/10/02 01:46:05;;;;;;;16.20;7.83;;;14.00;99.90;;;;;;4973183;28;20178;-75
2023/10/02 01:48:44;;;;;;;15.43;7.33;;;14.00;99.90;;;;;;4973394;28;20257;-75
2023/10/02 01:51:20;;;;;;;15.50;7.40;;;14.00;99.90;;;;;;4973339;28;20162;-76
2023/10/02 01:53:48;;;;;;;16.77;7.53;;;14.00;99.90;;;;;;4976039;28;20165;-75
2023/10/02 01:56:15;;;;;;;11.90;7.27;;;13.90;99.90;;;;;;4975849;28;20178;-75
2023/10/02 01:58:41;;;;;;;11.20;7.60;;;14.00;99.90;;;;;;4976912;28;20192;-75
2023/10/02 02:01:10;;;;;;;13.23;7.80;;;14.00;99.90;;;;;;4976833;28;20167;-75
2023/10/02 02:03:49;;;;;;;15.93;8.00;;;13.90;99.90;;;;;;4976454;28;20605;-75
2023/10/02 02:06:25;;;;;;;14.30;8.27;;;13.90;99.90;;;;;;4975342;28;20190;-76
2023/10/02 02:09:01;;;;;;;14.83;7.50;;;13.90;99.90;;;;;;4977040;28;20165;-75
2023/10/02 02:11:30;;;;;;;14.73;7.53;;;13.90;99.90;;;;;;4976576;28;20265;-75
2023/10/02 02:14:02;;;;;;;12.40;7.87;;;13.90;99.90;;;;;;4975023;28;20546;-74
2023/10/02 02:16:33;;;;;;;14.83;7.93;;;14.00;99.90;;;;;;4976467;28;20155;-75
2023/10/02 02:19:05;;;;;;;14.60;7.33;;;13.80;99.90;;;;;;4976557;28;20158;-75
2023/10/02 02:21:31;;;;;;;14.40;7.37;;;13.90;99.90;;;;;;4976287;28;20519;-75
2023/10/02 02:24:03;;;;;;;15.07;8.50;;;13.90;99.90;;;;;;4976342;28;20246;-75
2023/10/02 02:26:31;;;;;;;14.17;7.93;;;13.90;99.90;;;;;;4976417;28;20638;-76
2023/10/02 02:28:57;;;;;;;14.40;8.57;;;13.90;99.90;;;;;;4976891;28;20566;-75
2023/10/02 02:31:32;;;;;;;11.27;7.73;;;13.90;99.90;;;;;;4976417;28;20167;-76
2023/10/02 02:34:14;;;;;;;13.83;8.23;;;14.00;99.90;;;;;;4974799;28;20196;-75
2023/10/02 02:36:42;;;;;;;19.83;8.73;;;14.00;99.90;;;;;;4976182;28;20155;-75
2023/10/02 02:39:15;;;;;;;13.60;8.00;;;14.00;99.90;;;;;;4974795;28;20654;-74
2023/10/02 02:42:18;;;;;;;16.63;8.80;;;14.00;99.90;;;;;;4976005;28;20273;-75
2023/10/02 02:44:49;;;;;;;16.40;8.07;;;14.00;99.90;;;;;;4976232;28;20169;-75
2023/10/02 02:47:21;;;;;;;15.33;8.53;;;14.00;99.90;;;;;;4976053;28;20163;-75
2023/10/02 02:49:50;;;;;;;14.57;8.47;;;14.00;99.90;;;;;;4975871;28;20666;-75
2023/10/02 02:52:27;;;;;;;15.50;8.00;;;14.00;99.90;;;;;;4974529;28;20210;-75
2023/10/02 02:55:04;;;;;;;14.53;7.73;;;14.00;99.90;;;;;;4974525;28;20204;-75
2023/10/02 02:57:34;;;;;;;14.73;8.30;;;14.00;99.90;;;;;;4974522;28;20171;-75
2023/10/02 03:02:52;;;;;;;14.30;8.47;;;14.00;99.90;;;;;;4975607;28;20233;-75
2023/10/02 03:05:22;;;;;;;13.63;8.03;;;13.90;99.90;;;;;;4975741;28;20222;-75
2023/10/02 03:07:54;;;;;;;16.57;8.23;;;14.00;99.90;;;;;;4975882;28;20278;-75
2023/10/02 03:10:20;;;;;;;14.80;8.23;;;14.00;99.90;;;;;;4975563;28;20210;-75
2023/10/02 03:12:48;;;;;;;18.60;8.77;;;14.00;99.90;;;;;;4975335;28;20685;-75
2023/10/02 03:15:18;;;;;;;14.60;8.57;;;14.10;99.90;;;;;;4973837;28;20276;-75
2023/10/02 03:17:48;;;;;;;14.97;8.40;;;14.00;99.90;;;;;;4975306;28;20217;-75
2023/10/02 03:20:24;;;;;;;11.73;7.37;;;14.00;99.90;;;;;;4975347;28;20158;-75
2023/10/02 03:22:53;;;;;;;14.67;8.07;;;14.00;99.90;;;;;;4974008;28;20194;-75
2023/10/02 03:25:28;;;;;;;14.57;8.03;;;14.00;99.90;;;;;;4973882;28;20205;-74
2023/10/02 03:27:55;;;;;;;15.43;8.70;;;14.00;99.90;;;;;;4975372;28;20154;-75
2023/10/02 03:30:38;;;;;;;15.80;7.97;;;14.00;99.90;;;;;;4975023;28;20630;-75
2023/10/02 03:33:17;;;;;;;11.87;7.70;;;14.00;99.90;;;;;;4975378;28;20229;-75
2023/10/02 03:35:58;;;;;;;15.27;8.60;;;14.00;99.90;;;;;;4975060;28;20186;-75
2023/10/02 03:38:32;;;;;;;16.10;9.13;;;14.00;99.90;;;;;;4975185;28;20182;-75
2023/10/02 03:40:59;;;;;;;15.63;7.93;;;14.00;99.90;;;;;;4975009;28;20230;-75
2023/10/02 03:43:35;;;;;;;13.30;7.47;;;14.00;99.90;;;;;;4974820;28;20224;-74
2023/10/02 03:46:06;;;;;;;14.80;8.00;;;14.00;99.90;;;;;;4975018;28;20169;-75
2023/10/02 03:48:36;;;;;;;15.63;8.50;;;14.00;99.90;;;;;;4975256;28;20251;-75
2023/10/02 03:51:09;;;;;;;15.80;9.00;;;14.00;99.90;;;;;;4973428;28;20178;-75
2023/10/02 03:53:35;;;;;;;21.07;9.27;;;14.00;99.90;;;;;;4974696;28;20190;-75
2023/10/02 03:58:48;;;;;;;16.20;8.70;;;14.00;99.90;;;;;;4974809;28;20257;-75
2023/10/02 04:01:17;;;;;;;18.97;8.73;;;14.00;99.90;;;;;;4974417;28;20171;-76
2023/10/02 04:06:33;;;;;;;18.83;9.23;;;14.00;99.90;;;;;;4974708;28;20165;-74
2023/10/02 04:09:13;;;;;;;16.57;9.50;;;14.10;99.90;;;;;;4973010;28;20174;-75
2023/10/02 04:11:40;;;;;;;20.00;9.47;;;14.10;99.90;;;;;;4974484;28;20205;-75
2023/10/02 04:14:17;;;;;;;17.63;9.83;;;14.10;99.90;;;;;;4974375;28;20182;-75
2023/10/02 04:16:44;;;;;;;16.67;9.33;;;14.10;99.90;;;;;;4974102;28;20150;-75
2023/10/02 04:19:09;;;;;;;15.07;9.07;;;14.20;99.90;;;;;;4972948;28;20208;-74
2023/10/02 04:21:36;;;;;;;18.87;10.17;;;14.20;99.90;;;;;;4972835;28;20199;-75
2023/10/02 04:24:09;;;;;;;17.87;9.77;;;14.20;99.90;;;;;;4972919;28;20180;-75
2023/10/02 04:26:36;;;;;;;18.10;9.70;;;14.30;99.90;;;;;;4974576;28;20166;-75
2023/10/02 04:29:26;;;;;;;18.67;9.30;;;14.20;99.90;;;;;;4974016;28;20578;-75
2023/10/02 04:34:56;;;;;;;17.87;9.53;;;14.30;99.90;;;;;;4914504;29;20207;-75
2023/10/02 04:37:22;;;;;;;18.13;9.20;;;14.30;99.90;;;;;;4963334;28;20270;-75
2023/10/02 04:42:29;;;;;;;19.27;9.37;;;14.30;99.90;;;;;;4973732;28;20606;-75
2023/10/02 04:44:58;;;;;;;17.93;10.03;;;14.30;99.90;;;;;;4973923;28;20151;-76
2023/10/02 04:47:26;;;;;;;18.23;10.00;;;14.40;99.90;;;;;;4973696;28;20193;-75
2023/10/02 04:50:34;;;;;;;17.40;9.40;;;14.40;99.90;;;;;;4973746;28;20224;-75
2023/10/02 04:53:19;;;;;;;18.83;9.83;;;14.40;99.90;;;;;;4973492;28;20633;-75
2023/10/02 04:55:48;;;;;;;18.00;9.30;;;14.40;99.90;;;;;;4972894;28;20285;-75
2023/10/02 04:58:20;;;;;;;17.60;9.43;;;14.40;99.90;;;;;;4972390;28;20658;-75
2023/10/02 05:03:26;;;;;;;15.43;9.63;;;14.40;99.90;;;;;;4973712;28;20194;-74
2023/10/02 05:05:55;;;;;;;19.80;9.50;;;14.40;99.90;;;;;;4973277;28;20174;-75
2023/10/02 05:11:24;;;;;;;17.13;8.60;;;14.40;99.90;;;;;;4971664;28;20571;-75
2023/10/02 05:16:34;;;;;;;20.23;9.80;;;14.50;99.90;;;;;;4973716;28;20174;-75
2023/10/02 05:19:04;;;;;;;19.97;10.13;;;14.40;99.90;;;;;;4973394;28;20150;-75
2023/10/02 05:21:38;;;;;;;16.50;9.70;;;14.40;99.90;;;;;;4973236;28;20723;-75
2023/10/02 05:24:11;;;;;;;19.70;9.43;;;14.40;99.90;;;;;;4972026;28;20184;-75
2023/10/02 05:26:41;;;;;;;21.10;10.27;;;14.40;99.90;;;;;;4973112;28;20546;-75
2023/10/02 05:29:09;;;;;;;18.23;10.03;;;14.40;99.90;;;;;;4973353;28;20158;-75
2023/10/02 05:31:36;;;;;;;18.20;10.07;;;14.40;99.90;;;;;;4972108;28;20694;-75
2023/10/02 05:34:13;;;;;;;16.50;9.60;;;14.40;99.90;;;;;;4973638;28;20233;-75
2023/10/02 05:36:55;;;;;;;16.13;9.33;;;14.40;99.90;;;;;;4972254;28;20174;-75
2023/10/02 05:39:39;;;;;;;17.17;9.07;;;14.30;99.90;;;;;;4973477;28;20186;-75
2023/10/02 05:42:13;;;;;;;13.87;8.50;;;14.30;99.90;;;;;;4972233;28;20281;-75
2023/10/02 05:44:41;;;;;;;18.43;9.47;;;14.30;99.90;;;;;;4972180;28;20268;-75
2023/10/02 05:47:07;;;;;;;15.73;9.23;;;14.30;99.90;;;;;;4972171;28;20178;-75
2023/10/02 05:49:36;;;;;;;17.33;9.23;;;14.30;99.90;;;;;;4972424;28;20545;-75
2023/10/02 05:52:02;;;;;;;17.70;9.70;;;14.40;99.90;;;;;;4973398;28;20202;-75
2023/10/02 05:54:35;;;;;;;15.97;9.47;;;14.20;99.90;;;;;;4973312;28;20556;-75
2023/10/02 05:57:08;;;;;;;14.83;9.37;;;14.30;99.90;;;;;;4972058;28;20162;-75
2023/10/02 05:59:54;;;;;;;16.43;10.27;;;14.20;99.90;;;;;;4973329;28;20162;-75
2023/10/02 06:02:22;;;;;;;17.00;9.40;;;14.20;99.90;;;;;;4973338;28;20186;-74
2023/10/02 06:04:52;;;;;;;18.37;10.17;;;14.20;99.90;;;;;;4973457;28;20166;-75
2023/10/02 06:07:43;;;;;;;18.20;9.17;;;14.20;99.90;;;;;;4973373;28;20229;-76
2023/10/02 06:10:18;;;;;;;15.73;9.30;;;14.10;99.90;;;;;;4973253;28;20183;-75
2023/10/02 06:12:49;;;;;;;18.20;10.50;;;14.30;99.90;;;;;;4971998;28;20204;-75
2023/10/02 06:17:59;;;;;;;18.77;10.10;;;14.30;99.90;;;;;;4973629;28;20643;-76
2023/10/02 06:20:25;;;;;;;23.60;11.37;;;14.30;99.90;;;;;;4973089;28;20170;-75
2023/10/02 06:23:03;;;;;;;16.60;8.93;;;14.40;99.90;;;;;;4973075;28;20194;-75
2023/10/02 06:25:29;;;;;;;17.83;9.90;;;14.40;99.90;;;;;;4971762;28;20241;-75
2023/10/02 06:27:59;;;;;;;21.23;11.00;;;14.40;99.90;;;;;;4973423;28;20170;-75
2023/10/02 06:30:40;;;;;;;20.07;10.50;;;14.40;99.90;;;;;;4973045;28;20174;-75
2023/10/02 06:33:05;;;;;;;17.17;9.70;;;14.50;99.90;;;;;;4972893;28;20665;-75
2023/10/02 06:35:31;;;;;;;17.73;10.00;;;14.50;99.90;;;;;;4971664;28;20198;-75
2023/10/02 06:37:56;;;;;;;17.17;9.53;;;14.50;99.90;;;;;;4971593;28;20186;-75
2023/10/02 06:40:23;;;;;;;19.57;10.13;;;14.50;99.90;;;;;;4976413;28;20229;-74
2023/10/02 06:42:50;;;;;;;20.57;10.03;;;14.60;99.90;;;;;;4976302;28;20217;-77
2023/10/02 06:45:21;;;;;;;17.37;9.17;;;14.60;99.90;;;;;;4975149;28;20662;-75
2023/10/02 06:47:50;;;;;;;20.90;10.00;;;14.70;99.90;;;;;;4976513;28;20165;-75
2023/10/02 06:50:30;;;;;;;20.77;9.73;;;14.80;99.90;;;;;;4975187;28;20565;-75
2023/10/02 06:52:58;;;;;;;16.33;10.17;;;14.80;99.90;;;;;;4976238;28;20259;-75
2023/10/02 06:55:26;;;;;;;17.63;10.03;;;14.80;99.90;;;;;;4976254;28;20702;-75
2023/10/02 06:57:56;;;;;;;18.33;10.10;;;14.90;99.90;;;;;;4976471;28;20309;-75
2023/10/02 07:00:23;;;;;;;16.03;9.13;;;14.90;99.90;;;;;;4976456;28;20158;-75
2023/10/02 07:02:56;;;;;;;17.47;9.70;;;15.00;99.90;;;;;;4976182;28;20270;-77
2023/10/02 07:05:32;;;;;;;18.17;9.80;;;15.00;99.90;;;;;;4976274;28;20522;-76
2023/10/02 07:08:21;;;;;;;16.93;9.50;;;15.00;99.90;;;;;;4974944;28;20166;-76
2023/10/02 07:10:50;;;;;;;18.97;10.57;;;15.10;99.90;;;;;;4976149;28;20642;-76
2023/10/02 07:13:20;;;;;;;18.67;9.73;;;15.20;99.90;;;;;;4975779;28;20190;-75
2023/10/02 07:15:57;;;;;;;21.53;10.17;;;15.30;99.90;;;;;;4975790;28;20272;-75
2023/10/02 07:18:35;;;;;;;16.63;10.20;;;15.30;99.90;;;;;;4976248;28;20178;-75
2023/10/02 07:21:01;;;;;;;18.33;10.23;;;15.40;99.90;;;;;;4974510;28;20685;-75
2023/10/02 07:23:30;;;;;;;19.73;10.63;;;15.40;99.90;;;;;;4975642;28;20198;-75
2023/10/02 07:25:55;;;;;;;20.10;9.77;;;15.40;99.90;;;;;;4975624;28;20262;-75
2023/10/02 07:28:21;;;;;;;18.90;10.20;;;15.50;99.90;;;;;;4975865;28;20616;-75
2023/10/02 07:30:50;;;;;;;17.33;10.10;;;15.40;99.90;;;;;;4975529;28;20630;-75
2023/10/02 07:33:19;;;;;;;17.73;10.73;;;15.60;99.90;;;;;;4975402;28;20209;-75
2023/10/02 07:35:52;;;;;;;17.67;9.63;;;15.60;99.90;;;;;;4975330;28;20198;-75
2023/10/02 07:38:30;;;;;;;17.90;10.17;;;15.70;99.90;;;;;;4975447;28;20238;-75
2023/10/02 07:40:57;;;;;;;16.37;9.03;;;15.70;99.90;;;;;;4975811;28;20543;-75
2023/10/02 07:43:24;;;;;;;20.10;10.97;;;15.80;99.90;;;;;;4973966;28;20674;-75
2023/10/02 07:46:02;;;;;;;20.27;10.93;;;15.80;99.90;;;;;;4975944;28;20635;-75
2023/10/02 07:48:33;;;;;;;16.57;9.67;;;15.90;99.90;;;;;;4975357;28;20205;-75
2023/10/02 07:51:00;;;;;;;19.07;10.83;;;16.00;99.90;;;;;;4972723;28;20175;-75
2023/10/02 07:53:38;;;;;;;16.73;9.60;;;16.00;99.90;;;;;;4975075;28;20194;-75
2023/10/02 07:56:06;;;;;;;17.63;9.80;;;16.10;99.90;;;;;;4975030;28;20266;-75
2023/10/02 07:58:33;;;;;;;17.47;9.70;;;16.10;99.90;;;;;;4973789;28;20178;-76
2023/10/02 08:01:06;;;;;;;18.43;10.27;;;16.30;99.90;;;;;;4973717;28;20193;-75
2023/10/02 08:03:32;;;;;;;19.43;10.67;;;16.20;99.90;;;;;;4975335;28;20191;-74
2023/10/02 08:06:20;;;;;;;15.83;10.03;;;16.30;99.90;;;;;;4973660;28;20192;-76
2023/10/02 08:11:41;;;;;;;17.90;10.10;;;16.50;99.90;;;;;;4975140;28;20577;-75
2023/10/02 08:14:34;;;;;;;17.17;10.13;;;16.50;99.90;;;;;;4973333;28;20178;-75
2023/10/02 08:17:00;;;;;;;17.10;10.43;;;16.60;99.90;;;;;;4974488;28;20206;-75
2023/10/02 08:19:27;;;;;;;17.53;10.13;;;16.70;99.90;;;;;;4973336;28;20174;-75
2023/10/02 08:21:53;;;;;;;20.10;10.33;;;16.80;99.90;;;;;;4973283;28;20281;-76
2023/10/02 08:24:19;;;;;;;16.40;9.83;;;16.80;99.90;;;;;;4973226;28;20256;-76
2023/10/02 08:26:45;;;;;;;19.53;10.50;;;16.80;99.90;;;;;;4973176;28;20182;-76
2023/10/02 08:29:13;;;;;;;21.10;9.87;;;16.90;99.90;;;;;;4967390;28;20265;-77
2023/10/02 08:31:43;;;;;;;20.77;10.17;;;17.00;99.90;;;;;;4971852;28;20217;-79
2023/10/02 08:34:13;;;;;;;18.67;10.70;;;17.00;99.90;;;;;;4955038;28;20179;-75
2023/10/02 08:36:40;;;;;;;21.23;11.03;;;17.10;99.90;;;;;;4953676;28;20234;-75
2023/10/02 08:39:06;;;;;;;17.60;10.80;;;17.20;99.90;;;;;;4953491;28;20286;-75
2023/10/02 08:41:43;;;;;;;17.53;10.43;;;17.30;99.90;;;;;;4954854;28;20537;-75
2023/10/02 08:44:14;;;;;;;19.10;9.70;;;17.40;99.90;;;;;;4955170;28;20527;-76
2023/10/02 08:46:42;;;;;;;22.17;11.23;;;17.40;99.90;;;;;;4953506;29;20234;-75
2023/10/02 08:49:10;;;;;;;18.63;10.67;;;17.50;99.90;;;;;;4954750;28;20175;-75
2023/10/02 08:51:38;;;;;;;15.97;9.47;;;17.60;99.90;;;;;;4953384;28;20617;-76
2023/10/02 08:54:05;;;;;;;20.53;9.93;;;17.60;99.90;;;;;;4953287;29;20178;-77
2023/10/02 08:56:44;;;;;;;19.67;10.23;;;17.60;99.90;;;;;;4954668;29;20225;-76
2023/10/02 08:59:27;;;;;;;17.53;10.70;;;17.70;99.90;;;;;;4955009;28;20242;-76
2023/10/02 09:02:16;;;;;;;17.07;10.17;;;17.80;99.90;;;;;;4953632;28;20202;-76
2023/10/02 09:05:06;;;;;;;19.03;11.00;;;17.80;99.90;;;;;;4954710;28;20191;-76
2023/10/02 09:10:24;;;;;;;17.70;10.93;;;17.90;99.90;;;;;;4955157;29;20222;-76
2023/10/02 09:13:14;;;;;;;20.73;10.17;;;18.00;99.90;;;;;;4953448;28;20666;-76
2023/10/02 09:15:48;;;;;;;20.73;10.90;;;18.10;99.90;;;;;;4953311;29;20222;-75
2023/10/02 09:18:35;;;;;;;16.63;10.00;;;18.10;99.90;;;;;;4954638;28;20682;-76
2023/10/02 09:21:17;;;;;;;16.57;9.93;;;18.30;99.90;;;;;;4954301;28;20181;-76
2023/10/02 09:23:53;;;;;;;22.30;11.07;;;18.30;99.90;;;;;;4954322;29;20154;-75
2023/10/02 09:26:27;;;;;;;18.07;10.30;;;18.20;99.90;;;;;;4954021;28;20221;-76
2023/10/02 09:29:00;;;;;;;17.20;9.87;;;18.40;99.90;;;;;;4954022;28;20233;-75
2023/10/02 09:31:34;;;;;;;18.87;10.53;;;18.50;99.90;;;;;;4952509;28;20171;-76
2023/10/02 09:34:16;;;;;;;21.63;11.10;;;18.70;99.90;;;;;;4954027;28;20163;-75
2023/10/02 09:36:52;;;;;;;19.10;10.23;;;18.60;99.90;;;;;;4953870;28;20238;-75
2023/10/02 09:39:36;;;;;;;20.70;10.40;;;18.70;99.90;;;;;;4953851;28;20290;-75
2023/10/02 09:42:07;;;;;;;20.03;10.63;;;18.80;99.90;;;;;;4954013;28;20191;-75
2023/10/02 09:44:47;;;;;;;18.27;10.73;;;18.90;99.90;;;;;;4952734;28;20194;-75
2023/10/02 09:47:14;;;;;;;18.03;10.40;;;19.00;99.90;;;;;;4953791;28;20185;-75
2023/10/02 09:50:13;;;;;;;17.67;10.30;;;19.10;99.90;;;;;;4953752;28;20229;-76
2023/10/02 09:53:05;;;;;;;20.03;10.23;;;19.10;99.90;;;;;;4953588;28;20215;-75
2023/10/02 09:55:49;;;;;;;19.30;10.43;;;19.20;99.90;;;;;;4953948;28;20279;-76
2023/10/02 09:58:52;;;;;;;20.40;11.07;;;19.40;99.90;;;;;;4953900;29;20208;-75
2023/10/02 10:03:53;;;;;;;21.23;11.03;;;19.40;99.90;;;;;;4953748;29;20151;-76
2023/10/02 10:06:19;;;;;;;15.43;9.83;;;19.50;99.90;;;;;;4953859;28;20179;-76
2023/10/02 10:09:50;;;;;;;19.67;10.83;;;19.60;99.90;;;;;;4953598;29;20182;-76
2023/10/02 10:11:42;;;;;;;18.97;10.50;;;19.60;99.90;;;;;;4948081;28;20618;-76
2023/10/02 10:14:36;;;;;;;18.83;11.30;;;19.70;99.90;;;;;;4955181;28;20179;-75
2023/10/02 10:17:17;;;;;;;18.67;10.67;;;19.80;99.90;;;;;;4956622;28;20175;-75
2023/10/02 10:20:08;;;;;;;18.43;10.53;;;19.80;99.90;;;;;;4955784;28;20186;-76
2023/10/02 10:22:39;;;;;;;19.37;11.17;;;19.90;99.90;;;;;;4955757;28;20194;-75
2023/10/02 10:25:32;;;;;;;19.73;11.50;;;19.90;99.90;;;;;;4957163;28;20691;-75
2023/10/02 10:27:59;;;;;;;19.03;10.10;;;20.00;99.90;;;;;;4956898;28;20236;-75
2023/10/02 10:30:25;;;;;;;18.53;11.03;;;20.10;99.90;;;;;;4957198;28;20171;-76
2023/10/02 10:35:41;;;;;;;21.63;11.13;;;20.30;99.90;;;;;;4957346;28;20536;-76
2023/10/02 10:38:25;;;;;;;22.10;11.73;;;20.40;99.90;;;;;;4956726;28;20193;-76
2023/10/02 10:40:54;;;;;;;18.77;11.13;;;20.60;99.90;;;;;;4955609;29;20185;-75
2023/10/02 10:43:21;;;;;;;18.43;11.20;;;20.60;99.90;;;;;;4956684;28;20786;-76
2023/10/02 10:45:51;;;;;;;18.70;11.07;;;20.70;99.90;;;;;;4955375;28;20178;-76
2023/10/02 10:48:24;;;;;;;19.73;11.07;;;20.90;99.90;;;;;;4955423;29;20166;-76
2023/10/02 10:51:20;;;;;;;20.37;11.37;;;20.80;99.90;;;;;;4956903;28;20186;-76
2023/10/02 10:53:52;;;;;;;19.23;11.67;;;20.90;99.90;;;;;;4956593;28;20187;-76
2023/10/02 10:56:19;;;;;;;19.60;11.53;;;21.00;99.90;;;;;;4955186;29;20195;-76
2023/10/02 10:58:46;;;;;;;20.27;11.10;;;21.10;99.90;;;;;;4955097;28;20179;-76
2023/10/02 11:01:16;;;;;;;20.53;12.17;;;21.10;99.90;;;;;;4956702;28;20171;-76
2023/10/02 11:03:43;;;;;;;21.97;11.20;;;21.20;99.90;;;;;;4955120;29;20202;-76
2023/10/02 11:06:10;;;;;;;20.80;12.03;;;21.40;99.90;;;;;;4956398;28;20171;-76
2023/10/02 11:08:39;;;;;;;26.97;12.40;;;21.40;99.90;;;;;;4956414;28;20175;-76
2023/10/02 11:11:18;;;;;;;18.40;11.50;;;21.60;99.90;;;;;;4956496;28;20178;-76
2023/10/02 11:13:55;;;;;;;20.57;11.27;;;21.60;99.90;;;;;;4954985;29;20163;-76
2023/10/02 11:16:38;;;;;;;20.63;11.93;;;21.70;99.90;;;;;;4956182;28;20193;-76
2023/10/02 11:19:23;;;;;;;20.33;11.67;;;21.90;99.90;;;;;;4956249;28;20242;-76
2023/10/02 11:22:01;;;;;;;22.87;12.57;;;21.90;99.90;;;;;;4956132;28;20191;-76
2023/10/02 11:24:27;;;;;;;20.43;11.50;;;21.90;99.90;;;;;;4956020;28;20589;-76
2023/10/02 11:27:04;;;;;;;18.87;11.37;;;21.90;99.90;;;;;;4954662;29;20174;-75
2023/10/02 11:29:40;;;;;;;21.20;12.47;;;22.10;99.90;;;;;;4954665;29;20593;-76
2023/10/02 11:32:19;;;;;;;22.63;11.60;;;22.20;99.90;;;;;;4954539;28;20234;-76
2023/10/02 11:34:59;;;;;;;21.23;11.27;;;22.30;99.90;;;;;;4954550;28;20226;-76
2023/10/02 11:37:26;;;;;;;19.17;11.33;;;22.40;99.90;;;;;;4955824;28;20155;-77
2023/10/02 11:39:54;;;;;;;20.93;12.17;;;22.40;99.90;;;;;;4954554;28;20179;-76
2023/10/02 11:42:20;;;;;;;23.80;12.20;;;22.70;99.90;;;;;;4955763;28;20218;-76
2023/10/02 11:44:46;;;;;;;22.80;11.57;;;22.90;92.00;;;;;;4955946;28;20203;-78
2023/10/02 11:47:12;;;;;;;21.40;11.87;;;23.00;99.90;;;;;;4955670;28;20175;-76
2023/10/02 11:49:38;;;;;;;20.07;12.33;;;23.20;99.90;;;;;;4954231;29;20175;-75
2023/10/02 11:52:04;;;;;;;19.33;11.57;;;23.20;99.90;;;;;;4955448;28;20198;-76
2023/10/02 11:54:36;;;;;;;19.90;11.47;;;23.30;99.90;;;;;;4955387;28;20285;-76
2023/10/02 11:57:09;;;;;;;21.87;12.60;;;23.40;99.90;;;;;;4955679;28;20250;-76
2023/10/02 11:59:43;;;;;;;18.07;11.40;;;23.50;99.90;;;;;;4954139;28;20171;-76
2023/10/02 12:02:13;;;;;;;21.37;12.23;;;23.50;99.90;;;;;;4953986;28;20202;-76
2023/10/02 12:04:39;;;;;;;21.10;12.03;;;23.60;99.90;;;;;;4955451;28;20167;-76
2023/10/02 12:07:08;;;;;;;20.13;12.23;;;23.60;99.90;;;;;;4953991;29;20181;-76
2023/10/02 12:09:34;;;;;;;18.43;11.27;;;23.70;99.90;;;;;;4955289;28;20171;-76
2023/10/02 12:12:00;;;;;;;22.37;12.40;;;23.80;99.90;;;;;;4955112;28;20541;-76
2023/10/02 12:14:29;;;;;;;18.30;10.77;;;23.70;99.90;;;;;;4954993;28;20211;-76
2023/10/02 12:16:57;;;;;;;20.87;11.50;;;23.70;99.90;;;;;;4955146;28;20178;-76
2023/10/02 12:19:26;;;;;;;19.87;12.20;;;23.70;99.90;;;;;;4955347;28;20170;-76
2023/10/02 12:21:54;;;;;;;19.03;11.20;;;23.70;99.90;;;;;;4953602;28;20757;-76
2023/10/02 12:24:20;;;;;;;19.00;12.10;;;23.90;99.90;;;;;;4953587;28;20178;-76
2023/10/02 12:26:46;;;;;;;24.60;11.80;;;23.80;99.90;;;;;;4954411;28;20646;-76
2023/10/02 12:29:12;;;;;;;20.27;11.55;;;23.80;99.90;;;;;;4954830;28;20263;-76
2023/10/02 12:31:38;;;;;;;17.87;10.83;;;23.80;99.90;;;;;;4955001;28;20273;-76
2023/10/02 12:34:05;;;;;;;19.30;11.10;;;23.80;99.90;;;;;;4953710;28;20189;-76
2023/10/02 12:36:31;;;;;;;22.10;11.87;;;23.80;99.90;;;;;;4954382;28;20171;-76
2023/10/02 12:38:57;;;;;;;18.60;12.10;;;23.90;62.80;;;;;;4954575;28;20241;-77
2023/10/02 12:41:32;;;;;;;23.53;11.87;;;23.90;99.90;;;;;;4954543;28;20255;-76
2023/10/02 12:43:58;;;;;;;20.93;12.00;;;24.00;33.80;;;;;;4953973;28;20163;-76
2023/10/02 12:46:26;;;;;;;18.20;11.67;;;24.00;99.90;;;;;;4953272;28;20183;-76
2023/10/02 12:48:52;;;;;;;19.48;12.43;;;23.90;99.90;;;;;;4953287;28;20738;-76
2023/10/02 12:51:18;;;;;;;21.63;11.68;;;23.90;99.90;;;;;;4953182;28;20195;-77
2023/10/02 12:53:45;;;;;;;20.15;12.23;;;23.80;99.90;;;;;;4954636;28;20182;-76
2023/10/02 12:56:32;;;;;;;19.98;10.82;;;23.90;99.90;;;;;;4954501;28;20225;-76
2023/10/02 12:58:58;;;;;;;19.45;11.48;;;23.80;99.90;;;;;;4954486;28;20253;-76
2023/10/02 13:01:27;;;;;;;20.27;11.80;;;23.70;99.90;;;;;;4953656;28;20171;-76
2023/10/02 13:03:56;;;;;;;17.13;11.15;;;23.70;99.90;;;;;;4954290;28;20310;-76
2023/10/02 13:06:24;;;;;;;20.75;11.35;;;23.70;99.90;;;;;;4954180;28;20241;-76
2023/10/02 13:08:50;;;;;;;17.85;11.43;;;23.50;99.90;;;;;;4954452;28;20589;-77
2023/10/02 13:11:20;;;;;;;18.63;11.30;;;23.70;99.90;;;;;;4954296;28;20178;-76
2023/10/02 13:13:47;;;;;;;18.70;10.85;;;23.70;99.90;;;;;;4954190;28;20186;-76
2023/10/02 13:16:14;;;;;;;21.08;11.68;;;23.70;99.90;;;;;;4952802;28;20213;-76
2023/10/02 13:18:40;;;;;;;17.83;10.87;;;23.60;99.90;;;;;;4953102;29;20170;-76
2023/10/02 13:21:10;;;;;;;19.75;11.25;;;23.70;99.90;;;;;;4952717;28;20185;-76
2023/10/02 13:23:36;;;;;;;19.42;10.80;;;23.70;99.90;;;;;;4952557;28;20202;-76
2023/10/02 13:26:08;;;;;;;20.00;11.30;;;23.70;99.90;;;;;;4954199;28;20182;-77
2023/10/02 13:28:34;;;;;;;20.10;11.38;;;23.70;99.90;;;;;;4953983;28;20216;-76
2023/10/02 13:31:13;;;;;;;17.63;11.38;;;23.70;99.90;;;;;;4953961;28;20183;-76
2023/10/02 13:33:55;;;;;;;19.02;11.23;;;23.70;99.90;;;;;;4953969;28;20182;-77
2023/10/02 13:36:24;;;;;;;20.33;11.52;;;23.70;99.90;;;;;;4953821;28;20197;-76
2023/10/02 13:38:51;;;;;;;20.80;11.30;;;23.70;99.90;;;;;;4953695;28;20211;-74